Time;durP1;ratioP1;P1;durP2;ratioP2;P2;SDS_P1;SDS_P2;PMS_P1;PMS_P2;Temp;Humidity;BMP_temperature;BMP_pressure;BME280_temperature;BME280_humidity;BME280_pressure;Samples;Min_cycle;Max_cycle;Signal;HPM_P1;HPM_P2
2024/03/25 00:00:14;;;;;;;;;;;;;;;8.82;100.00;99784.69;5057699;28;20024;-87
2024/03/25 00:02:39;;;;;;;;;;;;;;;8.85;100.00;99781.50;5057216;28;20391;-87
2024/03/25 00:05:07;;;;;;;;;;;;;;;8.84;100.00;99775.34;5059157;28;19925;-87
2024/03/25 00:07:32;;;;;;;;;;;;;;;8.85;100.00;99781.50;5059220;28;20360;-87
2024/03/25 00:09:59;;;;;;;;;;;;;;;8.86;100.00;99780.44;5058977;28;20013;-87
2024/03/25 00:12:25;;;;;;;;;;;;;;;8.86;100.00;99783.91;5058692;28;19921;-87
2024/03/25 00:14:50;;;;;;;;;;;;;;;8.84;100.00;99783.34;5055205;28;19923;-87
2024/03/25 00:17:16;;;;;;;;;;;;;;;8.84;100.00;99780.69;5056454;28;19920;-87
2024/03/25 00:19:42;;;;;;;;;;;;;;;8.83;100.00;99778.28;5054102;28;20534;-87
2024/03/25 00:22:07;;;;;;;;;;;;;;;8.81;100.00;99778.53;5043484;28;19929;-87
2024/03/25 00:24:32;;;;;;;;;;;;;;;8.82;100.00;99779.34;5057223;28;20011;-87
2024/03/25 00:26:57;;;;;;;;;;;;;;;8.83;100.00;99787.09;5057243;28;19929;-86
2024/03/25 00:29:22;;;;;;;;;;;;;;;8.83;100.00;99783.63;5056016;28;19927;-87
2024/03/25 00:31:48;;;;;;;;;;;;;;;8.83;100.00;99781.75;5057998;28;19924;-87
2024/03/25 00:34:13;;;;;;;;;;;;;;;8.85;100.00;99784.16;5057542;28;20014;-87
2024/03/25 00:36:38;;;;;;;;;;;;;;;8.85;100.00;99790.31;5057863;28;20002;-86
2024/03/25 00:39:03;;;;;;;;;;;;;;;8.82;100.00;99777.47;5058198;28;19932;-87
2024/03/25 00:41:29;;;;;;;;;;;;;;;8.85;100.00;99776.16;5057257;28;19928;-87
2024/03/25 00:43:54;;;;;;;;;;;;;;;8.87;100.00;99782.84;5060719;28;19916;-87
2024/03/25 00:46:19;;;;;;;;;;;;;;;8.90;100.00;99781.50;5059908;28;19939;-87
2024/03/25 00:48:44;;;;;;;;;;;;;;;8.93;100.00;99780.97;5039458;28;19971;-87
2024/03/25 00:51:09;;;;;;;;;;;;;;;8.92;100.00;99782.84;5057633;28;20059;-87
2024/03/25 00:53:34;;;;;;;;;;;;;;;8.94;100.00;99779.91;5057574;28;20046;-87
2024/03/25 00:56:00;;;;;;;;;;;;;;;8.96;100.00;99777.78;5057550;28;19920;-88
2024/03/25 00:58:25;;;;;;;;;;;;;;;8.96;100.00;99783.94;5058384;28;19921;-86
2024/03/25 01:00:50;;;;;;;;;;;;;;;8.98;100.00;99786.38;5057321;28;19995;-87
2024/03/25 01:03:15;;;;;;;;;;;;;;;9.00;100.00;99781.56;5057384;28;20053;-87
2024/03/25 01:05:41;;;;;;;;;;;;;;;9.02;100.00;99792.78;5056647;28;19916;-87
2024/03/25 01:08:06;;;;;;;;;;;;;;;8.99;100.00;99788.78;5056295;28;19925;-87
2024/03/25 01:10:31;;;;;;;;;;;;;;;8.98;100.00;99787.16;5058461;28;19946;-87
2024/03/25 01:12:57;;;;;;;;;;;;;;;8.98;100.00;99792.50;5057206;28;19967;-87
2024/03/25 01:15:22;;;;;;;;;;;;;;;9.00;100.00;99794.91;5057428;28;19916;-87
2024/03/25 01:17:47;;;;;;;;;;;;;;;9.01;100.00;99797.34;5056094;28;20043;-87
2024/03/25 01:20:13;;;;;;;;;;;;;;;9.04;100.00;99796.00;5056567;28;19940;-87
2024/03/25 01:22:39;;;;;;;;;;;;;;;9.05;100.00;99797.59;5053352;28;20026;-87
2024/03/25 01:25:04;;;;;;;;;;;;;;;9.05;100.00;99802.94;5055951;28;20499;-87
2024/03/25 01:27:29;;;;;;;;;;;;;;;9.04;100.00;99809.38;5056686;28;19916;-87
2024/03/25 01:29:54;;;;;;;;;;;;;;;9.05;100.00;99806.44;5055084;28;19943;-87
2024/03/25 01:32:20;;;;;;;;;;;;;;;9.06;100.00;99805.34;5056350;28;19931;-87
2024/03/25 01:34:45;;;;;;;;;;;;;;;9.06;100.00;99815.25;5056263;28;20034;-88
2024/03/25 01:37:10;;;;;;;;;;;;;;;9.03;100.00;99811.22;5058205;28;20401;-87
2024/03/25 01:39:37;;;;;;;;;;;;;;;9.04;100.00;99806.69;5053075;28;19973;-87
2024/03/25 01:42:02;;;;;;;;;;;;;;;9.05;100.00;99813.63;5053959;28;20384;-87
2024/03/25 01:44:27;;;;;;;;;;;;;;;9.05;100.00;99811.78;5054015;28;19916;-86
2024/03/25 01:46:54;;;;;;;;;;;;;;;9.03;100.00;99816.56;5054618;28;19942;-87
2024/03/25 01:49:20;;;;;;;;;;;;;;;9.03;100.00;99821.13;5055080;28;19916;-87
2024/03/25 01:51:45;;;;;;;;;;;;;;;9.04;100.00;99812.84;5053414;28;19924;-87
2024/03/25 01:54:14;;;;;;;;;;;;;;;9.06;100.00;99815.25;5055484;28;19970;-86
2024/03/25 01:56:40;;;;;;;;;;;;;;;9.08;100.00;99821.13;5055221;28;19917;-87
2024/03/25 01:59:06;;;;;;;;;;;;;;;9.08;100.00;99824.59;5053722;28;19924;-87
2024/03/25 02:01:31;;;;;;;;;;;;;;;9.09;100.00;99825.41;5054603;28;20765;-87
2024/03/25 02:03:56;;;;;;;;;;;;;;;9.08;100.00;99821.13;5053811;28;20355;-87
2024/03/25 02:06:23;;;;;;;;;;;;;;;9.08;100.00;99821.94;5054139;28;19916;-87
2024/03/25 02:08:49;;;;;;;;;;;;;;;9.08;100.00;99823.81;5052800;28;20410;-86
2024/03/25 02:11:15;;;;;;;;;;;;;;;9.07;100.00;99828.34;5055491;28;20054;-87
2024/03/25 02:13:40;;;;;;;;;;;;;;;9.06;100.00;99829.41;5052860;28;19948;-87
2024/03/25 02:16:05;;;;;;;;;;;;;;;9.06;100.00;99837.44;5051854;28;20006;-87
2024/03/25 02:18:31;;;;;;;;;;;;;;;9.08;100.00;99834.50;5054395;28;20378;-86
2024/03/25 02:20:57;;;;;;;;;;;;;;;9.09;100.00;99841.44;5053435;28;19924;-87
2024/03/25 02:23:22;;;;;;;;;;;;;;;9.08;100.00;99848.66;5054326;28;20728;-87
2024/03/25 02:25:51;;;;;;;;;;;;;;;9.06;100.00;99847.31;5054029;28;19925;-88
2024/03/25 02:28:17;;;;;;;;;;;;;;;9.03;100.00;99840.63;5054757;28;20604;-86
2024/03/25 02:30:42;;;;;;;;;;;;;;;8.99;100.00;99849.44;5051667;28;19921;-87
2024/03/25 02:33:07;;;;;;;;;;;;;;;8.96;100.00;99852.59;5052181;28;19916;-86
2024/03/25 02:35:33;;;;;;;;;;;;;;;8.95;100.00;99854.47;5051815;28;20514;-87
2024/03/25 02:37:58;;;;;;;;;;;;;;;8.94;100.00;99860.06;5054236;28;20709;-87
2024/03/25 02:40:24;;;;;;;;;;;;;;;8.96;100.00;99857.94;5053970;28;19927;-86
2024/03/25 02:42:49;;;;;;;;;;;;;;;8.94;100.00;99862.72;5055955;28;20328;-87
2024/03/25 02:45:14;;;;;;;;;;;;;;;8.94;100.00;99860.88;5054787;28;19942;-87
2024/03/25 02:47:40;;;;;;;;;;;;;;;8.93;100.00;99869.13;5053461;28;19932;-87
2024/03/25 02:50:05;;;;;;;;;;;;;;;8.94;100.00;99874.22;5053213;28;19925;-87
2024/03/25 02:52:30;;;;;;;;;;;;;;;8.93;100.00;99875.28;5053129;28;19921;-87
2024/03/25 02:54:56;;;;;;;;;;;;;;;8.91;100.00;99881.97;5053370;28;19946;-86
2024/03/25 02:57:21;;;;;;;;;;;;;;;8.91;100.00;99881.97;5054024;28;19916;-86
2024/03/25 02:59:46;;;;;;;;;;;;;;;8.91;100.00;99887.28;5049932;28;19978;-87
2024/03/25 03:02:11;;;;;;;;;;;;;;;8.89;100.00;99887.56;5050546;28;20288;-86
2024/03/25 03:04:37;;;;;;;;;;;;;;;8.89;100.00;99892.91;5052268;28;19963;-87
2024/03/25 03:07:02;;;;;;;;;;;;;;;8.92;100.00;99887.03;5052894;28;20015;-87
2024/03/25 03:09:27;;;;;;;;;;;;;;;8.91;100.00;99881.97;5052822;28;19916;-87
2024/03/25 03:11:53;;;;;;;;;;;;;;;8.90;100.00;99888.38;5053273;28;20007;-87
2024/03/25 03:14:18;;;;;;;;;;;;;;;8.91;100.00;99889.97;5051844;28;19921;-87
2024/03/25 03:16:43;;;;;;;;;;;;;;;8.94;100.00;99897.47;5053788;28;21120;-87
2024/03/25 03:19:08;;;;;;;;;;;;;;;8.95;100.00;99904.41;5053571;28;20515;-87
2024/03/25 03:21:33;;;;;;;;;;;;;;;8.95;100.00;99899.88;5054070;28;20533;-87
2024/03/25 03:23:59;;;;;;;;;;;;;;;8.96;100.00;99900.69;5054259;28;20023;-87
2024/03/25 03:26:27;;;;;;;;;;;;;;;8.96;100.00;99908.69;5055905;28;19924;-86
2024/03/25 03:28:53;;;;;;;;;;;;;;;8.96;100.00;99911.38;5055732;28;19928;-87
2024/03/25 03:31:18;;;;;;;;;;;;;;;8.98;100.00;99917.28;5059208;28;19923;-87
2024/03/25 03:33:43;;;;;;;;;;;;;;;9.01;100.00;99916.75;5056308;28;19982;-87
2024/03/25 03:36:08;;;;;;;;;;;;;;;9.04;100.00;99922.38;5056836;28;19932;-87
2024/03/25 03:38:34;;;;;;;;;;;;;;;9.05;100.00;99921.31;5055998;28;19924;-87
2024/03/25 03:41:00;;;;;;;;;;;;;;;9.04;100.00;99919.72;5055426;28;20534;-86
2024/03/25 03:43:25;;;;;;;;;;;;;;;9.04;100.00;99929.59;5057573;28;20011;-87
2024/03/25 03:45:50;;;;;;;;;;;;;;;9.04;100.00;99922.38;5056970;28;20284;-87
2024/03/25 03:48:15;;;;;;;;;;;;;;;9.05;100.00;99937.34;5055764;28;19920;-86
2024/03/25 03:50:41;;;;;;;;;;;;;;;9.04;100.00;99937.63;5056980;28;19939;-87
2024/03/25 03:53:06;;;;;;;;;;;;;;;9.03;100.00;99938.69;5055140;28;19935;-87
2024/03/25 03:55:31;;;;;;;;;;;;;;;9.02;100.00;99939.75;5056749;28;19917;-87
2024/03/25 03:57:57;;;;;;;;;;;;;;;8.99;100.00;99941.06;5053781;28;20389;-86
2024/03/25 04:00:22;;;;;;;;;;;;;;;9.00;100.00;99941.88;5055041;28;20019;-87
2024/03/25 04:02:47;;;;;;;;;;;;;;;9.01;100.00;99941.63;5052213;28;19925;-87
2024/03/25 04:05:12;;;;;;;;;;;;;;;9.04;100.00;99945.63;5054508;28;19925;-87
2024/03/25 04:07:38;;;;;;;;;;;;;;;9.02;100.00;99948.56;5052673;28;19923;-86
2024/03/25 04:10:04;;;;;;;;;;;;;;;9.02;100.00;99945.91;5054026;28;19925;-87
2024/03/25 04:12:29;;;;;;;;;;;;;;;9.03;100.00;99955.53;5053523;28;20262;-87
2024/03/25 04:14:56;;;;;;;;;;;;;;;9.04;100.00;99950.97;5051780;28;20450;-87
2024/03/25 04:17:21;;;;;;;;;;;;;;;9.04;100.00;99956.31;5057110;28;19923;-87
2024/03/25 04:19:47;;;;;;;;;;;;;;;9.03;100.00;99962.72;5052844;28;19924;-87
2024/03/25 04:22:12;;;;;;;;;;;;;;;8.98;100.00;99962.69;5053935;28;19952;-87
2024/03/25 04:24:37;;;;;;;;;;;;;;;8.98;100.00;99957.34;5054874;28;20400;-86
2024/03/25 04:27:03;;;;;;;;;;;;;;;9.04;100.00;99967.81;5055736;28;20384;-87
2024/03/25 04:29:29;;;;;;;;;;;;;;;9.07;100.00;99966.50;5055980;28;19924;-87
2024/03/25 04:31:54;;;;;;;;;;;;;;;9.09;100.00;99969.72;5056792;28;19991;-87
2024/03/25 04:34:20;;;;;;;;;;;;;;;9.09;100.00;99975.84;5056379;28;20416;-87
2024/03/25 04:36:45;;;;;;;;;;;;;;;9.06;100.00;99984.41;5054569;28;19936;-88
2024/03/25 04:39:11;;;;;;;;;;;;;;;9.06;100.00;99983.59;5056449;28;19916;-86
2024/03/25 04:41:36;;;;;;;;;;;;;;;9.07;100.00;99994.03;5053605;28;19921;-86
2024/03/25 04:44:01;;;;;;;;;;;;;;;9.10;100.00;99992.69;5054354;28;20069;-87
2024/03/25 04:46:27;;;;;;;;;;;;;;;9.11;100.00;99996.97;5054387;28;19956;-87
2024/03/25 04:48:53;;;;;;;;;;;;;;;9.13;100.00;100002.06;5055655;28;19985;-87
2024/03/25 04:51:18;;;;;;;;;;;;;;;9.12;100.00;100011.94;5053352;28;19923;-87
2024/03/25 04:53:44;;;;;;;;;;;;;;;9.11;100.00;100005.00;5054275;28;19928;-86
2024/03/25 04:56:09;;;;;;;;;;;;;;;9.09;100.00;100018.63;5055405;28;20003;-87
2024/03/25 04:58:34;;;;;;;;;;;;;;;9.08;100.00;100027.69;5054522;28;19932;-87
2024/03/25 05:00:59;;;;;;;;;;;;;;;9.07;100.00;100028.75;5053428;28;19931;-86
2024/03/25 05:03:24;;;;;;;;;;;;;;;9.05;100.00;100033.56;5054339;28;19935;-87
2024/03/25 05:05:50;;;;;;;;;;;;;;;9.08;100.00;100037.59;5054729;28;20401;-86
2024/03/25 05:08:15;;;;;;;;;;;;;;;9.06;100.00;100031.69;5054918;28;20007;-87
2024/03/25 05:10:40;;;;;;;;;;;;;;;9.05;100.00;100038.91;5054824;28;19917;-87
2024/03/25 05:13:05;;;;;;;;;;;;;;;9.06;100.00;100037.03;5054471;28;19967;-87
2024/03/25 05:15:30;;;;;;;;;;;;;;;9.07;100.00;100044.78;5055204;28;19936;-87
2024/03/25 05:17:56;;;;;;;;;;;;;;;9.06;100.00;100051.19;5055840;28;20611;-86
2024/03/25 05:20:21;;;;;;;;;;;;;;;9.02;100.00;100059.97;5053849;28;20369;-87
2024/03/25 05:22:46;;;;;;;;;;;;;;;9.03;100.00;100056.25;5053446;28;19929;-86
2024/03/25 05:25:12;;;;;;;;;;;;;;;9.05;100.00;100059.47;5053103;28;20840;-87
2024/03/25 05:27:37;;;;;;;;;;;;;;;9.09;100.00;100063.25;5054242;28;19923;-87
2024/03/25 05:30:02;;;;;;;;;;;;;;;9.12;100.00;100065.41;5053487;28;19920;-87
2024/03/25 05:32:27;;;;;;;;;;;;;;;9.14;100.00;100067.81;5054231;28;19916;-87
2024/03/25 05:34:53;;;;;;;;;;;;;;;9.16;100.00;100066.53;5055956;28;19963;-86
2024/03/25 05:37:18;;;;;;;;;;;;;;;9.18;100.00;100080.44;5054181;28;20380;-86
2024/03/25 05:39:43;;;;;;;;;;;;;;;9.17;100.00;100075.34;5053702;28;19925;-87
2024/03/25 05:42:08;;;;;;;;;;;;;;;9.18;100.00;100068.94;5053980;28;19921;-86
2024/03/25 05:44:33;;;;;;;;;;;;;;;9.20;100.00;100072.97;5053198;28;20047;-86
2024/03/25 05:46:58;;;;;;;;;;;;;;;9.22;100.00;100078.84;5053917;28;19928;-86
2024/03/25 05:49:24;;;;;;;;;;;;;;;9.24;100.00;100082.06;5052120;28;19970;-87
2024/03/25 05:51:49;;;;;;;;;;;;;;;9.22;100.00;100081.53;5051363;28;20829;-87
2024/03/25 05:54:14;;;;;;;;;;;;;;;9.23;100.00;100082.34;5054826;28;19923;-87
2024/03/25 05:56:39;;;;;;;;;;;;;;;9.23;100.00;100085.81;5054874;28;20005;-86
2024/03/25 05:59:05;;;;;;;;;;;;;;;9.26;100.00;100092.50;5051387;28;19924;-86
2024/03/25 06:01:31;;;;;;;;;;;;;;;9.27;100.00;100100.28;5049849;28;20566;-85
2024/03/25 06:03:56;;;;;;;;;;;;;;;9.26;100.00;100104.00;5053861;28;20391;-86
2024/03/25 06:06:21;;;;;;;;;;;;;;;9.27;100.00;100104.81;5052879;28;20476;-86
2024/03/25 06:08:46;;;;;;;;;;;;;;;9.26;100.00;100104.00;5054903;28;19925;-87
2024/03/25 06:11:12;;;;;;;;;;;;;;;9.26;100.00;100109.34;5053171;28;19925;-86
2024/03/25 06:13:37;;;;;;;;;;;;;;;9.25;100.00;100113.09;5052747;28;19923;-86
2024/03/25 06:16:02;;;;;;;;;;;;;;;9.27;100.00;100120.84;5053725;28;19927;-90
2024/03/25 06:18:27;;;;;;;;;;;;;;;9.29;100.00;100129.44;5052503;28;19939;-86
2024/03/25 06:20:52;;;;;;;;;;;;;;;9.29;100.00;100130.22;5057026;28;20381;-85
2024/03/25 06:23:22;;;;;;;;;;;;;;;9.31;100.00;100133.44;5051198;28;20016;-86
2024/03/25 06:25:47;;;;;;;;;;;;;;;9.35;100.00;100137.25;5054949;28;19924;-85
2024/03/25 06:28:12;;;;;;;;;;;;;;;9.36;100.00;100133.50;5054443;28;20434;-86
2024/03/25 06:36:05;;;;;;;;;;;;;;;9.44;100.00;100150.13;5055961;28;20046;-86
2024/03/25 06:38:30;;;;;;;;;;;;;;;9.47;100.00;100160.31;5054491;28;20007;-86
2024/03/25 06:40:55;;;;;;;;;;;;;;;9.47;100.00;100161.13;5052968;28;20357;-86
2024/03/25 06:43:21;;;;;;;;;;;;;;;9.46;100.00;100164.06;5057065;28;20396;-86
2024/03/25 06:45:46;;;;;;;;;;;;;;;9.47;100.00;100163.00;5053205;28;19924;-87
2024/03/25 06:48:11;;;;;;;;;;;;;;;9.50;100.00;100168.63;5050871;28;19948;-85
2024/03/25 06:50:36;;;;;;;;;;;;;;;9.52;100.00;100165.75;5052492;28;20624;-86
2024/03/25 06:53:02;;;;;;;;;;;;;;;9.53;100.00;100178.03;5052084;28;19921;-85
2024/03/25 06:55:28;;;;;;;;;;;;;;;9.54;100.00;100177.78;5055711;28;19924;-86
2024/03/25 06:57:53;;;;;;;;;;;;;;;9.55;100.00;100182.06;5057611;28;19924;-86
2024/03/25 07:00:20;;;;;;;;;;;;;;;9.58;100.00;100186.09;5058624;28;19916;-87
2024/03/25 07:02:45;;;;;;;;;;;;;;;9.58;100.00;100186.09;5054241;28;20389;-86
2024/03/25 07:05:10;;;;;;;;;;;;;;;9.59;100.00;100188.53;5059259;28;19924;-85
2024/03/25 07:07:36;;;;;;;;;;;;;;;9.62;100.00;100193.34;5057448;28;20427;-86
2024/03/25 07:10:01;;;;;;;;;;;;;;;9.66;100.00;100194.44;5056922;28;19924;-86
2024/03/25 07:12:26;;;;;;;;;;;;;;;9.71;100.00;100201.72;5055126;28;19923;-87
2024/03/25 07:14:52;;;;;;;;;;;;;;;9.72;100.00;100200.66;5062258;28;20337;-85
2024/03/25 07:17:17;;;;;;;;;;;;;;;9.76;100.00;100207.13;5062946;28;19921;-86
2024/03/25 07:19:43;;;;;;;;;;;;;;;9.79;100.00;100213.81;5056814;28;19920;-86
2024/03/25 07:22:08;;;;;;;;;;;;;;;9.82;100.00;100211.44;5054193;28;19987;-85
2024/03/25 07:24:33;;;;;;;;;;;;;;;9.82;100.00;100218.66;5056969;28;20385;-86
2024/03/25 07:26:58;;;;;;;;;;;;;;;9.86;100.00;100220.56;5056105;28;19916;-86
2024/03/25 07:29:24;;;;;;;;;;;;;;;9.87;100.00;100222.16;5054410;28;20015;-86
2024/03/25 07:31:49;;;;;;;;;;;;;;;9.90;100.00;100220.88;5057763;28;19950;-85
2024/03/25 07:34:14;;;;;;;;;;;;;;;9.89;100.00;100224.63;5058462;28;19928;-86
2024/03/25 07:36:39;;;;;;;;;;;;;;;9.87;100.00;100238.22;5055712;28;19920;-85
2024/03/25 07:39:10;;;;;;;;;;;;;;;9.85;100.00;100235.00;5064707;28;19951;-86
2024/03/25 07:41:36;;;;;;;;;;;;;;;9.88;100.00;100231.03;5060660;28;19916;-86
2024/03/25 07:44:01;;;;;;;;;;;;;;;9.91;100.00;100238.53;5054362;28;19958;-86
2024/03/25 07:46:26;;;;;;;;;;;;;;;9.93;100.00;100242.56;5055927;28;20383;-86
2024/03/25 07:48:51;;;;;;;;;;;;;;;9.96;100.00;100247.41;5056007;28;19926;-86
2024/03/25 07:51:17;;;;;;;;;;;;;;;10.00;100.00;100245.00;5058981;28;19978;-86
2024/03/25 07:53:42;;;;;;;;;;;;;;;10.02;100.00;100240.22;5061775;28;19923;-86
2024/03/25 07:56:07;;;;;;;;;;;;;;;10.07;100.00;100252.84;5064691;28;20462;-86
2024/03/25 07:58:33;;;;;;;;;;;;;;;10.15;100.00;100249.69;5059423;28;19959;-86
2024/03/25 08:00:58;;;;;;;;;;;;;;;10.19;100.00;100246.22;5055220;28;19923;-86
2024/03/25 08:03:25;;;;;;;;;;;;;;;10.22;100.00;100255.63;5055410;28;20381;-86
2024/03/25 08:05:50;;;;;;;;;;;;;;;10.25;100.00;100260.50;5056760;28;20312;-86
2024/03/25 08:08:15;;;;;;;;;;;;;;;10.28;100.00;100262.66;5058139;28;20159;-86
2024/03/25 08:10:41;;;;;;;;;;;;;;;10.32;100.00;100269.09;5054331;28;19912;-86
2024/03/25 08:13:06;;;;;;;;;;;;;;;10.37;100.00;100277.16;5054901;28;20569;-86
2024/03/25 08:15:31;;;;;;;;;;;;;;;10.40;100.00;100279.31;5054856;28;19913;-86
2024/03/25 08:17:56;;;;;;;;;;;;;;;10.44;100.00;100287.69;5064634;28;20384;-86
2024/03/25 08:20:21;;;;;;;;;;;;;;;10.44;100.00;100291.16;5061207;28;19916;-85
2024/03/25 08:22:48;;;;;;;;;;;;;;;10.47;100.00;100289.84;5053132;28;19924;-86
2024/03/25 08:25:13;;;;;;;;;;;;;;;10.51;100.00;100297.09;5063288;28;20027;-86
2024/03/25 08:27:39;;;;;;;;;;;;;;;10.57;100.00;100295.25;5055387;28;20017;-86
2024/03/25 08:30:04;;;;;;;;;;;;;;;10.65;100.00;100302.00;5058372;28;19970;-85
2024/03/25 08:32:29;;;;;;;;;;;;;;;10.69;100.00;100303.09;5054622;28;19970;-85
2024/03/25 08:34:54;;;;;;;;;;;;;;;10.68;100.00;100306.84;5054993;28;19917;-85
2024/03/25 08:37:19;;;;;;;;;;;;;;;10.67;100.00;100313.25;5056543;28;19948;-85
2024/03/25 08:39:45;;;;;;;;;;;;;;;10.66;100.00;100317.00;5055088;28;20388;-85
2024/03/25 08:42:10;;;;;;;;;;;;;;;10.67;100.00;100315.94;5054693;28;19921;-85
2024/03/25 08:44:35;;;;;;;;;;;;;;;10.68;100.00;100312.19;5060205;28;19994;-85
2024/03/25 08:47:00;;;;;;;;;;;;;;;10.72;100.00;100315.97;5053595;28;19975;-85
2024/03/25 08:49:26;;;;;;;;;;;;;;;10.73;100.00;100317.56;5056181;28;19964;-85
2024/03/25 08:51:51;;;;;;;;;;;;;;;10.72;100.00;100321.31;5055545;28;19928;-85
2024/03/25 08:54:16;;;;;;;;;;;;;;;10.75;100.00;100323.47;5058181;28;19942;-85
2024/03/25 08:56:42;;;;;;;;;;;;;;;10.81;100.00;100327.81;5055376;28;19921;-85
2024/03/25 08:59:09;;;;;;;;;;;;;;;10.85;100.00;100324.34;5058974;28;19916;-85
2024/03/25 09:01:34;;;;;;;;;;;;;;;10.85;100.00;100324.34;5053296;28;19923;-85
2024/03/25 09:03:59;;;;;;;;;;;;;;;10.95;100.00;100312.88;5054879;28;19920;-86
2024/03/25 09:06:25;;;;;;;;;;;;;;;11.06;100.00;100319.88;5054071;28;19917;-85
2024/03/25 09:11:35;;;;;;;;;;;;;;;11.08;100.00;100328.47;5055114;28;19978;-85
2024/03/25 09:14:02;;;;;;;;;;;;;;;11.18;100.00;100327.72;5052795;28;19944;-85
2024/03/25 09:16:28;;;;;;;;;;;;;;;11.25;100.00;100327.47;5054798;28;20555;-86
2024/03/25 09:18:53;;;;;;;;;;;;;;;11.20;100.00;100330.94;5054954;28;19921;-85
2024/03/25 09:21:18;;;;;;;;;;;;;;;11.22;100.00;100336.06;5056065;28;19917;-84
2024/03/25 09:23:44;;;;;;;;;;;;;;;11.27;100.00;100334.19;5056405;28;19928;-84
2024/03/25 09:26:10;;;;;;;;;;;;;;;11.30;100.00;100343.56;5055283;28;20028;-85
2024/03/25 09:28:35;;;;;;;;;;;;;;;11.35;100.00;100346.31;5051856;28;19917;-85
2024/03/25 09:31:01;;;;;;;;;;;;;;;11.39;100.00;100350.06;5056336;28;19931;-84
2024/03/25 09:33:26;;;;;;;;;;;;;;;11.39;100.00;100350.88;5053689;28;19931;-84
2024/03/25 09:35:51;;;;;;;;;;;;;;;11.46;100.00;100345.25;5055898;28;19921;-85
2024/03/25 09:38:16;;;;;;;;;;;;;;;11.52;100.00;100346.09;5053329;28;19916;-85
2024/03/25 09:40:42;;;;;;;;;;;;;;;11.73;100.00;100343.19;5054654;28;19921;-85
2024/03/25 09:43:13;;;;;;;;;;;;;;;12.05;100.00;100347.56;5056689;28;19925;-84
2024/03/25 09:45:40;;;;;;;;;;;;;;;12.40;100.00;100338.72;5055587;28;20317;-85
2024/03/25 09:48:05;;;;;;;;;;;;;;;12.55;100.00;100344.06;5055246;28;19920;-85
2024/03/25 09:50:31;;;;;;;;;;;;;;;12.62;100.00;100346.47;5055503;28;19931;-85
2024/03/25 09:52:56;;;;;;;;;;;;;;;12.67;100.00;100344.56;5055618;28;19971;-85
2024/03/25 09:55:22;;;;;;;;;;;;;;;12.64;100.00;100350.50;5047039;28;20534;-85
2024/03/25 09:57:47;;;;;;;;;;;;;;;12.52;96.37;100362.59;5051204;28;19955;-85
2024/03/25 10:00:13;;;;;;;;;;;;;;;12.39;98.90;100375.53;5058809;28;19967;-86
2024/03/25 10:02:40;;;;;;;;;;;;;;;12.28;99.50;100370.41;5052624;28;19924;-88
2024/03/25 10:05:06;;;;;;;;;;;;;;;12.17;100.00;100371.47;5055650;28;19974;-86
2024/03/25 10:07:32;;;;;;;;;;;;;;;12.07;98.81;100377.66;5057847;28;20012;-85
2024/03/25 10:09:58;;;;;;;;;;;;;;;11.99;99.80;100375.47;5055935;28;20007;-86
2024/03/25 10:12:23;;;;;;;;;;;;;;;12.00;100.00;100375.19;5057764;28;19962;-86
2024/03/25 10:14:48;;;;;;;;;;;;;;;12.08;100.00;100377.38;5056995;28;19920;-86
2024/03/25 10:17:13;;;;;;;;;;;;;;;12.12;100.00;100384.91;5057757;28;19920;-85
2024/03/25 10:19:39;;;;;;;;;;;;;;;12.17;100.00;100391.06;5056766;28;19928;-86
2024/03/25 10:22:04;;;;;;;;;;;;;;;12.17;100.00;100392.94;5054751;28;20091;-86
2024/03/25 10:24:45;;;;;;;;;;;;;;;12.15;100.00;100387.84;5056593;28;19920;-86
2024/03/25 10:27:20;;;;;;;;;;;;;;;12.02;99.09;100391.03;5051843;28;19917;-86
2024/03/25 10:29:51;;;;;;;;;;;;;;;11.86;98.18;100395.59;5050945;28;20383;-86
2024/03/25 10:32:16;;;;;;;;;;;;;;;11.78;98.69;100406.81;5054388;28;19928;-85
2024/03/25 10:34:41;;;;;;;;;;;;;;;11.69;98.85;100414.56;5063259;28;19966;-86
2024/03/25 10:37:08;;;;;;;;;;;;;;;11.63;98.76;100423.66;5058981;28;20015;-86
2024/03/25 10:39:36;;;;;;;;;;;;;;;11.55;98.59;100429.53;5057130;28;19916;-87
2024/03/25 10:42:04;;;;;;;;;;;;;;;11.45;98.50;100422.25;5052670;28;19927;-87
2024/03/25 10:44:32;;;;;;;;;;;;;;;11.43;99.65;100429.75;5054047;28;20190;-86
2024/03/25 10:47:04;;;;;;;;;;;;;;;11.43;100.00;100429.75;5051885;28;19920;-86
2024/03/25 10:49:34;;;;;;;;;;;;;;;11.47;100.00;100438.06;5052567;28;20304;-86
2024/03/25 10:52:00;;;;;;;;;;;;;;;11.46;100.00;100426.53;5057161;28;19925;-86
2024/03/25 10:54:26;;;;;;;;;;;;;;;11.44;100.00;100423.31;5058182;28;19962;-86
2024/03/25 10:56:51;;;;;;;;;;;;;;;11.49;100.00;100418.00;5058876;28;19925;-86
2024/03/25 10:59:18;;;;;;;;;;;;;;;11.63;100.00;100415.59;5055682;28;19921;-86
2024/03/25 11:01:43;;;;;;;;;;;;;;;11.79;100.00;100414.63;5055076;28;19923;-86
2024/03/25 11:04:09;;;;;;;;;;;;;;;12.01;100.00;100421.66;5056558;28;19932;-86
2024/03/25 11:06:34;;;;;;;;;;;;;;;12.22;100.00;100417.97;5054888;28;19943;-85
2024/03/25 11:08:59;;;;;;;;;;;;;;;12.26;100.00;100423.59;5056128;28;20013;-85
2024/03/25 11:11:32;;;;;;;;;;;;;;;12.10;97.17;100431.63;5052368;28;20024;-85
2024/03/25 11:13:58;;;;;;;;;;;;;;;11.95;96.87;100445.00;5053282;28;19920;-86
2024/03/25 11:16:29;;;;;;;;;;;;;;;11.75;94.48;100445.72;5054433;28;19995;-85
2024/03/25 11:18:54;;;;;;;;;;;;;;;11.51;94.18;100452.59;5052422;28;19966;-86
2024/03/25 11:21:24;;;;;;;;;;;;;;;11.34;94.26;100465.38;5053309;28;19932;-86
2024/03/25 11:23:50;;;;;;;;;;;;;;;11.06;94.76;100466.53;5052047;28;20374;-86
2024/03/25 11:26:19;;;;;;;;;;;;;;;10.98;97.04;100467.03;5057921;28;20012;-85
2024/03/25 11:28:45;;;;;;;;;;;;;;;10.85;96.53;100468.28;5050066;28;19916;-86
2024/03/25 11:31:10;;;;;;;;;;;;;;;10.77;97.49;100466.03;5053807;28;19916;-87
2024/03/25 11:33:39;;;;;;;;;;;;;;;10.71;97.32;100464.41;5053844;28;19924;-86
2024/03/25 11:36:04;;;;;;;;;;;;;;;10.68;97.86;100462.22;5056318;28;19921;-86
2024/03/25 11:38:30;;;;;;;;;;;;;;;10.68;98.31;100448.84;5050178;28;19928;-85
2024/03/25 11:40:55;;;;;;;;;;;;;;;10.70;98.96;100457.41;5049715;28;20377;-85
2024/03/25 11:43:22;;;;;;;;;;;;;;;10.74;98.90;100445.13;5050431;28;19972;-87
2024/03/25 11:45:47;;;;;;;;;;;;;;;10.73;98.59;100436.28;5050459;28;19923;-86
2024/03/25 11:48:14;;;;;;;;;;;;;;;10.80;99.12;100430.72;5056821;28;19916;-87
2024/03/25 11:50:39;;;;;;;;;;;;;;;10.87;99.32;100436.66;5053400;28;19917;-86
2024/03/25 11:53:05;;;;;;;;;;;;;;;10.98;99.83;100434.88;5054947;28;20450;-86
2024/03/25 11:55:30;;;;;;;;;;;;;;;11.11;99.79;100439.75;5056522;28;20396;-85
2024/03/25 11:57:56;;;;;;;;;;;;;;;11.22;99.27;100441.44;5049564;28;19924;-86
2024/03/25 12:00:21;;;;;;;;;;;;;;;11.38;100.00;100442.34;5058904;28;20114;-86
2024/03/25 12:02:47;;;;;;;;;;;;;;;11.60;100.00;100440.28;5054506;28;19968;-85
2024/03/25 12:05:12;;;;;;;;;;;;;;;11.86;100.00;100443.13;5064741;28;19917;-86
2024/03/25 12:07:37;;;;;;;;;;;;;;;12.13;100.00;100442.91;5059225;28;20592;-85
2024/03/25 12:12:47;;;;;;;;;;;;;;;12.55;99.15;100443.47;5059820;28;19927;-86
2024/03/25 12:15:12;;;;;;;;;;;;;;;12.65;98.34;100443.50;5062487;28;20006;-85
2024/03/25 12:17:38;;;;;;;;;;;;;;;12.72;99.31;100440.53;5056047;28;19920;-86
2024/03/25 12:20:10;;;;;;;;;;;;;;;12.76;99.10;100438.94;5061403;28;19924;-86
2024/03/25 12:22:36;;;;;;;;;;;;;;;12.73;95.92;100434.06;5056101;28;20048;-86
2024/03/25 12:25:05;;;;;;;;;;;;;;;12.70;96.84;100434.63;5054653;28;20004;-86
2024/03/25 12:27:31;;;;;;;;;;;;;;;12.69;96.42;100427.63;5057636;28;20388;-88
2024/03/25 12:30:06;;;;;;;;;;;;;;;12.71;97.41;100430.84;5055024;28;19982;-87
2024/03/25 12:32:41;;;;;;;;;;;;;;;12.66;95.61;100439.72;5059963;28;20528;-86
2024/03/25 12:35:10;;;;;;;;;;;;;;;12.58;95.50;100429.53;5056984;28;19928;-87
2024/03/25 12:37:43;;;;;;;;;;;;;;;12.54;95.50;100424.94;5058208;28;19913;-87
2024/03/25 12:40:27;;;;;;;;;;;;;;;12.50;95.43;100430.06;5056918;28;19921;-87